Time;durP1;ratioP1;P1;durP2;ratioP2;P2;SDS_P1;SDS_P2;PMS_P1;PMS_P2;Temp;Humidity;BMP_temperature;BMP_pressure;BME280_temperature;BME280_humidity;BME280_pressure;Samples;Min_cycle;Max_cycle;Signal;HPM_P1;HPM_P2
2023/07/02 00:00:11;;;;;;;6.13;5.28;;;;;;;26.03;56.38;100309.56;4861918;29;20401;-58
2023/07/02 00:02:38;;;;;;;5.40;4.38;;;;;;;26.03;56.37;100301.44;4862222;29;20058;-58
2023/07/02 00:05:07;;;;;;;4.97;4.47;;;;;;;26.03;56.45;100304.16;4861646;29;20076;-58
2023/07/02 00:07:36;;;;;;;5.45;4.68;;;;;;;26.04;56.35;100308.53;4861498;29;20058;-59
2023/07/02 00:10:04;;;;;;;5.70;5.10;;;;;;;26.05;56.62;100310.25;4861784;29;20062;-59
2023/07/02 00:12:32;;;;;;;7.28;4.15;;;;;;;26.05;56.53;100298.53;4860904;29;20057;-58
2023/07/02 00:15:01;;;;;;;7.38;5.03;;;;;;;26.05;56.50;100302.09;4861660;29;20049;-58
2023/07/02 00:17:28;;;;;;;5.70;5.10;;;;;;;26.06;56.63;100298.34;4862007;29;20049;-58
2023/07/02 00:19:56;;;;;;;4.90;4.25;;;;;;;26.06;56.67;100297.50;4861693;29;20056;-58
2023/07/02 00:22:23;;;;;;;5.28;4.78;;;;;;;26.07;56.64;100293.75;4861646;29;20056;-58
2023/07/02 00:24:51;;;;;;;5.57;4.97;;;;;;;26.06;56.82;100292.91;4861575;29;20052;-59
2023/07/02 00:27:18;;;;;;;7.10;5.03;;;;;;;26.07;56.99;100302.75;4861512;29;20061;-58
2023/07/02 00:29:46;;;;;;;6.13;4.75;;;;;;;26.06;57.13;100301.06;4861560;29;20050;-58
2023/07/02 00:32:14;;;;;;;7.07;5.25;;;;;;;26.06;57.31;100302.94;4860181;29;20491;-58
2023/07/02 00:34:41;;;;;;;5.55;4.72;;;;;;;26.06;57.22;100305.66;4860175;29;20413;-58
2023/07/02 00:37:08;;;;;;;5.43;4.93;;;;;;;26.06;57.20;100308.34;4860470;29;20057;-61
2023/07/02 00:39:36;;;;;;;6.00;5.40;;;;;;;26.04;57.12;100304.97;4861469;29;20045;-60
2023/07/02 00:42:04;;;;;;;7.10;5.63;;;;;;;26.02;57.04;100312.47;4860659;29;20064;-60
2023/07/02 00:44:31;;;;;;;7.05;5.13;;;;;;;26.00;57.03;100312.66;4861445;29;20049;-60
2023/07/02 00:46:59;;;;;;;4.68;4.18;;;;;;;25.99;57.05;100300.13;4861398;29;20072;-60
2023/07/02 00:49:27;;;;;;;5.40;4.82;;;;;;;25.98;57.11;100297.63;4861304;29;20056;-60
2023/07/02 00:51:55;;;;;;;5.05;4.53;;;;;;;25.97;57.04;100298.63;4861350;29;20046;-60
2023/07/02 00:54:22;;;;;;;6.28;4.70;;;;;;;25.97;57.09;100298.63;4861221;29;20064;-61
2023/07/02 00:56:50;;;;;;;6.75;5.35;;;;;;;25.95;57.15;100290.69;4860248;29;20049;-58
2023/07/02 00:59:18;;;;;;;5.53;4.25;;;;;;;25.93;57.15;100295.47;4875535;29;20053;-58
2023/07/02 01:01:49;;;;;;;5.72;4.72;;;;;;;25.91;57.14;100289.38;4861358;29;20045;-58
2023/07/02 01:04:19;;;;;;;9.02;5.05;;;;;;;25.92;57.13;100292.94;4861294;29;20057;-58
2023/07/02 01:06:47;;;;;;;4.97;4.47;;;;;;;25.91;57.26;100299.38;4861066;29;20054;-60
2023/07/02 01:09:15;;;;;;;4.85;4.10;;;;;;;25.91;57.26;100297.50;4861284;29;20049;-60
2023/07/02 01:11:57;;;;;;;5.38;4.55;;;;;;;25.91;57.08;100299.38;4861138;29;20113;-60
2023/07/02 01:14:33;;;;;;;5.05;4.53;;;;;;;25.90;57.29;100295.84;4859970;29;20380;-60
2023/07/02 01:17:03;;;;;;;4.82;3.97;;;;;;;25.89;57.25;100300.44;4861252;29;20088;-60
2023/07/02 01:19:51;;;;;;;5.07;4.47;;;;;;;25.89;57.31;100299.59;4859038;29;20053;-60
2023/07/02 01:22:24;;;;;;;4.82;4.20;;;;;;;25.89;57.26;100299.59;4861304;29;20494;-60
2023/07/02 01:24:52;;;;;;;;;;;;;;;25.87;57.18;100307.06;4864698;29;20533;-60
2023/07/02 01:27:20;;;;;;;5.20;4.60;;;;;;;25.87;57.39;100297.03;4864297;29;19924;-61
2023/07/02 01:29:51;;;;;;;5.85;5.13;;;;;;;25.86;57.09;100306.22;4864649;29;20061;-60
2023/07/02 01:32:18;;;;;;;5.40;4.35;;;;;;;25.87;57.23;100298.91;4864548;29;20053;-60
2023/07/02 01:34:48;;;;;;;5.15;4.57;;;;;;;25.87;57.17;100307.06;4864423;29;20052;-60
2023/07/02 01:37:16;;;;;;;5.75;5.15;;;;;;;25.87;57.18;100307.06;4864658;29;20041;-60
2023/07/02 01:39:44;;;;;;;5.70;4.80;;;;;;;25.86;57.14;100311.63;4878527;29;20064;-60
2023/07/02 01:42:17;;;;;;;5.82;5.18;;;;;;;25.85;57.11;100306.41;4864351;29;20045;-60
2023/07/02 01:44:47;;;;;;;6.60;5.75;;;;;;;25.84;57.15;100310.13;4864272;29;20053;-60
2023/07/02 01:47:15;;;;;;;5.93;5.32;;;;;;;25.82;57.12;100307.63;4864243;29;20056;-59
2023/07/02 01:49:43;;;;;;;6.78;5.13;;;;;;;25.82;57.05;100309.50;4864171;29;20064;-59
2023/07/02 01:52:10;;;;;;;5.80;5.20;;;;;;;25.81;57.07;100307.81;4862884;29;20057;-59
2023/07/02 01:54:38;;;;;;;6.13;4.75;;;;;;;25.80;57.18;100311.53;4864328;29;20049;-59
2023/07/02 01:57:06;;;;;;;5.72;4.68;;;;;;;25.80;57.06;100300.69;4878575;29;20050;-60
2023/07/02 01:59:33;;;;;;;6.75;5.03;;;;;;;25.80;57.21;100303.41;4878135;29;20389;-60
2023/07/02 02:02:00;;;;;;;6.05;5.35;;;;;;;25.78;57.14;100309.03;4864134;29;20116;-60
2023/07/02 02:04:28;;;;;;;5.80;5.20;;;;;;;25.76;57.11;100300.19;4864000;29;20513;-60
2023/07/02 02:06:55;;;;;;;6.80;5.63;;;;;;;25.76;57.20;100300.19;4862489;29;20061;-60
2023/07/02 02:09:23;;;;;;;5.93;5.28;;;;;;;25.76;57.14;100302.06;4862846;29;20068;-60
2023/07/02 02:11:52;;;;;;;5.00;4.32;;;;;;;25.76;57.07;100307.47;4862369;29;20061;-61
2023/07/02 02:14:21;;;;;;;5.40;4.90;;;;;;;25.76;57.35;100299.34;4877968;29;20062;-60
2023/07/02 02:16:49;;;;;;;5.22;4.72;;;;;;;25.76;57.16;100304.78;4863598;29;20068;-58
2023/07/02 02:19:16;;;;;;;5.95;5.35;;;;;;;25.76;57.29;100299.34;4863676;29;20132;-58
2023/07/02 02:21:44;;;;;;;6.40;4.55;;;;;;;25.76;57.24;100311.03;4863673;29;20054;-59
2023/07/02 02:24:12;;;;;;;6.03;5.05;;;;;;;25.76;57.23;100307.47;4863723;29;20064;-59
2023/07/02 02:26:39;;;;;;;5.18;4.65;;;;;;;25.75;57.24;100306.66;4863649;29;20042;-60
2023/07/02 02:29:07;;;;;;;4.85;4.35;;;;;;;25.75;57.20;100308.53;4863494;29;20053;-60
2023/07/02 02:31:35;;;;;;;6.22;5.28;;;;;;;25.73;57.13;100308.72;4877550;29;20053;-60
2023/07/02 02:34:03;;;;;;;5.90;5.00;;;;;;;25.73;57.24;100310.59;4862124;29;20046;-60
2023/07/02 02:36:32;;;;;;;6.50;4.97;;;;;;;25.71;57.19;100302.63;4877254;29;20087;-60
2023/07/02 02:39:00;;;;;;;6.45;4.28;;;;;;;25.71;57.20;100310.75;4861957;29;20064;-60
2023/07/02 02:41:28;;;;;;;5.13;4.63;;;;;;;25.71;57.33;100308.06;4863025;29;20193;-61
2023/07/02 02:43:56;;;;;;;5.32;4.82;;;;;;;25.71;57.28;100315.34;4862032;29;20057;-60
2023/07/02 02:46:23;;;;;;;6.10;5.05;;;;;;;25.69;57.16;100314.72;4863149;29;20414;-60
2023/07/02 02:48:52;;;;;;;5.25;4.57;;;;;;;25.69;57.23;100310.13;4861711;29;20060;-60
2023/07/02 02:51:20;;;;;;;5.30;4.75;;;;;;;25.70;57.21;100316.38;4863335;29;20054;-60
2023/07/02 02:53:47;;;;;;;5.30;4.57;;;;;;;25.68;57.23;100313.84;4863135;29;20053;-60
2023/07/02 02:56:15;;;;;;;5.35;4.55;;;;;;;25.67;57.33;100312.16;4877263;29;20486;-60
2023/07/02 02:58:44;;;;;;;5.80;4.85;;;;;;;25.68;57.42;100313.00;4862975;29;20054;-60
2023/07/02 03:01:11;;;;;;;5.15;4.63;;;;;;;25.67;57.35;100311.31;4877011;29;20057;-60
2023/07/02 03:03:44;;;;;;;5.25;4.75;;;;;;;25.68;57.43;100321.13;4877094;29;20054;-60
2023/07/02 03:06:14;;;;;;;6.55;4.90;;;;;;;25.67;57.18;100316.75;4862765;29;20072;-58
2023/07/02 03:08:42;;;;;;;5.63;4.97;;;;;;;25.65;57.36;100317.78;4862875;29;20053;-59
2023/07/02 03:11:09;;;;;;;5.75;5.00;;;;;;;25.65;57.35;100323.19;4862860;29;20046;-59
2023/07/02 03:13:36;;;;;;;5.13;4.60;;;;;;;25.65;57.32;100319.66;4860998;29;20516;-59
2023/07/02 03:16:04;;;;;;;7.25;4.93;;;;;;;25.65;57.36;100316.94;4862987;29;20045;-58
2023/07/02 03:18:32;;;;;;;5.15;4.63;;;;;;;25.65;57.43;100320.50;4862400;29;20053;-58
2023/07/02 03:21:00;;;;;;;5.57;4.93;;;;;;;25.65;57.48;100320.50;4862651;29;20406;-58
2023/07/02 03:23:27;;;;;;;4.97;4.25;;;;;;;25.66;57.37;100324.03;4862782;29;20055;-58
2023/07/02 03:25:54;;;;;;;5.18;4.18;;;;;;;25.66;57.36;100326.75;4862643;29;20049;-59
2023/07/02 03:28:22;;;;;;;6.10;5.13;;;;;;;25.67;57.39;100322.16;4862421;29;20418;-58
2023/07/02 03:30:49;;;;;;;4.97;4.25;;;;;;;25.65;57.40;100331.34;4862422;29;20053;-58
2023/07/02 03:33:17;;;;;;;5.00;4.50;;;;;;;25.66;57.29;100332.19;4862513;29;20398;-58
2023/07/02 03:35:44;;;;;;;5.03;4.53;;;;;;;25.64;57.35;100324.25;4862378;29;20101;-59
2023/07/02 03:38:12;;;;;;;5.65;4.70;;;;;;;25.64;57.14;100326.94;4862407;29;20053;-58
2023/07/02 03:40:39;;;;;;;5.88;5.05;;;;;;;25.64;57.23;100329.66;4862285;29;20060;-58
2023/07/02 03:43:08;;;;;;;5.05;4.38;;;;;;;25.64;57.17;100336.94;4862236;29;20054;-58
2023/07/02 03:45:35;;;;;;;6.03;4.63;;;;;;;25.63;57.23;100333.38;4862129;29;20060;-58
2023/07/02 03:48:03;;;;;;;5.97;4.63;;;;;;;25.62;57.48;100336.28;4862616;29;20466;-58
2023/07/02 03:50:30;;;;;;;5.75;4.55;;;;;;;25.61;57.29;100340.88;4862164;29;20053;-58
2023/07/02 03:52:58;;;;;;;6.50;4.70;;;;;;;25.61;57.22;100348.16;4860792;29;20053;-58
2023/07/02 03:55:25;;;;;;;5.55;4.45;;;;;;;25.61;57.28;100342.75;4862036;29;20046;-58
2023/07/02 03:57:52;;;;;;;4.97;4.28;;;;;;;25.59;57.30;100345.63;4862024;29;20049;-59
2023/07/02 04:00:20;;;;;;;5.30;4.70;;;;;;;25.59;57.28;100355.63;4861673;29;20053;-58
2023/07/02 04:02:47;;;;;;;6.30;4.68;;;;;;;25.59;57.29;100356.47;4861809;29;20060;-58
2023/07/02 04:05:15;;;;;;;5.97;4.60;;;;;;;25.61;57.07;100359.84;4861640;29;20061;-59
2023/07/02 04:07:42;;;;;;;5.32;4.72;;;;;;;25.61;57.11;100356.28;4861574;29;20053;-59
2023/07/02 04:10:09;;;;;;;6.13;4.50;;;;;;;25.62;57.21;100358.81;4862068;29;20046;-58
2023/07/02 04:12:37;;;;;;;4.63;4.03;;;;;;;25.62;57.16;100358.81;4861754;29;20050;-58
2023/07/02 04:15:05;;;;;;;5.82;4.38;;;;;;;25.62;57.01;100361.50;4861541;29;20053;-58
2023/07/02 04:17:32;;;;;;;5.75;3.85;;;;;;;25.62;57.10;100355.25;4861643;29;20060;-58
2023/07/02 04:20:01;;;;;;;5.07;4.03;;;;;;;25.62;56.98;100364.22;4861706;29;20052;-59
2023/07/02 04:22:28;;;;;;;3.63;3.10;;;;;;;25.63;56.98;100370.50;4861566;29;20112;-58
2023/07/02 04:24:56;;;;;;;4.88;3.90;;;;;;;25.62;56.99;100369.66;4861643;29;20394;-59
2023/07/02 04:27:28;;;;;;;4.82;3.88;;;;;;;25.64;56.91;100373.03;4861840;29;20057;-60
2023/07/02 04:30:15;;;;;;;5.60;3.30;;;;;;;25.65;56.95;100373.88;4861565;29;20052;-60
2023/07/02 04:32:43;;;;;;;5.30;4.07;;;;;;;25.68;56.74;100375.34;4861570;29;20061;-60
2023/07/02 04:35:13;;;;;;;4.05;3.25;;;;;;;25.68;56.77;100383.47;4862211;29;20053;-60
2023/07/02 04:37:40;;;;;;;5.45;3.53;;;;;;;25.69;56.64;100388.75;4861423;29;20050;-60
2023/07/02 04:40:09;;;;;;;4.78;3.95;;;;;;;25.70;56.67;100381.44;4861312;29;20054;-60
2023/07/02 04:42:38;;;;;;;3.92;3.25;;;;;;;25.69;56.58;100382.47;4861506;29;20499;-60
2023/07/02 04:45:08;;;;;;;4.85;3.50;;;;;;;25.70;56.60;100382.28;4861688;29;20050;-60
2023/07/02 04:47:35;;;;;;;5.05;3.08;;;;;;;25.70;56.47;100387.72;4861452;29;20046;-58
2023/07/02 04:50:05;;;;;;;4.00;3.55;;;;;;;25.70;56.57;100389.59;4861392;29;20058;-58
2023/07/02 04:52:33;;;;;;;4.97;3.40;;;;;;;25.70;56.45;100378.75;4861391;29;20061;-58
2023/07/02 04:55:02;;;;;;;4.03;3.38;;;;;;;25.69;56.54;100386.03;4861279;29;20411;-58
2023/07/02 04:57:29;;;;;;;4.10;3.25;;;;;;;25.70;56.52;100390.41;4862102;29;20399;-59
2023/07/02 04:59:57;;;;;;;4.90;3.72;;;;;;;25.71;56.73;100396.69;4864764;29;20050;-58
2023/07/02 05:02:24;;;;;;;5.43;3.50;;;;;;;25.71;56.50;100393.97;4864656;29;20053;-58
2023/07/02 05:04:52;;;;;;;4.47;3.55;;;;;;;25.71;56.64;100393.97;4864712;29;20057;-58
2023/07/02 05:07:19;;;;;;;7.07;3.50;;;;;;;25.71;56.64;100399.41;4864952;29;20058;-58
2023/07/02 05:09:48;;;;;;;4.80;3.58;;;;;;;25.70;56.58;100405.84;4864879;29;20053;-58
2023/07/02 05:12:15;;;;;;;4.05;3.20;;;;;;;25.69;56.46;100405.00;4864903;29;20061;-58
2023/07/02 05:14:43;;;;;;;3.95;3.55;;;;;;;25.70;56.52;100408.56;4864831;29;20057;-58
2023/07/02 05:17:10;;;;;;;5.20;3.28;;;;;;;25.71;56.72;100410.25;4864820;29;20053;-58
2023/07/02 05:19:40;;;;;;;4.75;3.25;;;;;;;25.71;56.80;100404.81;4864739;29;20049;-58
2023/07/02 05:22:09;;;;;;;4.55;3.28;;;;;;;25.72;56.76;100412.75;4864657;29;20054;-58
2023/07/02 05:24:36;;;;;;;4.72;3.72;;;;;;;25.72;56.81;100412.75;4878921;29;20379;-58
2023/07/02 05:27:04;;;;;;;5.22;3.85;;;;;;;25.73;56.72;100413.63;4864787;29;20394;-58
2023/07/02 05:29:32;;;;;;;5.82;3.42;;;;;;;25.74;56.77;100412.59;4864611;29;20474;-58
2023/07/02 05:31:59;;;;;;;4.45;2.85;;;;;;;25.74;56.65;100418.00;4864791;29;20049;-58
2023/07/02 05:34:26;;;;;;;4.88;3.38;;;;;;;25.75;56.69;100417.81;4878753;29;20405;-58
2023/07/02 05:36:54;;;;;;;5.70;3.35;;;;;;;25.76;56.75;100408.66;4864268;29;20057;-58
2023/07/02 05:39:22;;;;;;;4.10;3.33;;;;;;;25.77;56.84;100412.22;4864407;29;20053;-58
2023/07/02 05:41:49;;;;;;;4.32;3.20;;;;;;;25.77;56.68;100410.38;4864279;29;20056;-58
2023/07/02 05:44:17;;;;;;;5.38;3.55;;;;;;;25.79;56.78;100412.91;4864175;29;20052;-58
2023/07/02 05:46:45;;;;;;;4.78;3.60;;;;;;;25.80;56.76;100412.69;4864345;29;20049;-58
2023/07/02 05:49:12;;;;;;;4.22;3.53;;;;;;;25.80;56.75;100409.16;4864250;29;20060;-58
2023/07/02 05:51:40;;;;;;;3.55;2.90;;;;;;;25.80;56.77;100412.69;4864304;29;20056;-58
2023/07/02 05:54:07;;;;;;;4.20;3.33;;;;;;;25.81;56.83;100409.00;4864111;29;20056;-58
2023/07/02 05:56:34;;;;;;;7.03;3.28;;;;;;;25.82;56.82;100401.69;4864170;29;20053;-58
2023/07/02 05:59:02;;;;;;;3.97;3.15;;;;;;;25.83;56.85;100414.22;4864055;29;20049;-58
2023/07/02 06:01:29;;;;;;;4.00;3.28;;;;;;;25.83;56.93;100420.47;4864008;29;20058;-58
2023/07/02 06:03:56;;;;;;;4.38;3.58;;;;;;;25.83;56.83;100420.47;4863953;29;20414;-58
2023/07/02 06:06:24;;;;;;;4.43;2.90;;;;;;;25.84;56.98;100424.88;4863563;29;20061;-60
2023/07/02 06:08:51;;;;;;;3.75;2.88;;;;;;;25.85;56.95;100420.31;4862886;29;20047;-61
2023/07/02 06:11:19;;;;;;;4.30;3.47;;;;;;;25.86;57.06;100424.69;4863762;29;20054;-60
2023/07/02 06:13:46;;;;;;;5.05;4.00;;;;;;;25.86;57.00;100422.00;4863910;29;20045;-60
2023/07/02 06:16:14;;;;;;;4.38;3.53;;;;;;;25.86;56.94;100430.13;4863909;29;20053;-59
2023/07/02 06:18:41;;;;;;;4.55;3.03;;;;;;;25.87;57.16;100432.63;4863844;29;20054;-58
2023/07/02 06:21:08;;;;;;;4.60;3.50;;;;;;;25.87;56.92;100424.50;4863429;29;20077;-58
2023/07/02 06:23:43;;;;;;;3.88;3.47;;;;;;;25.89;56.86;100424.34;4863506;29;20049;-58
2023/07/02 06:26:11;;;;;;;4.68;3.50;;;;;;;25.90;56.88;100431.44;4863613;29;20061;-58
2023/07/02 06:28:39;;;;;;;4.07;3.20;;;;;;;25.91;57.09;100435.81;4863450;29;20049;-59
2023/07/02 06:31:06;;;;;;;4.68;3.38;;;;;;;25.93;56.88;100441.94;4863490;29;20432;-59
2023/07/02 06:33:37;;;;;;;4.05;3.00;;;;;;;25.95;57.10;100433.59;4863467;29;20076;-59
2023/07/02 06:36:05;;;;;;;4.15;3.60;;;;;;;25.96;56.92;100443.41;4863296;29;20064;-60
2023/07/02 06:38:32;;;;;;;4.55;3.40;;;;;;;25.95;56.96;100430.88;4863107;29;20045;-60
2023/07/02 06:40:59;;;;;;;4.40;3.63;;;;;;;25.97;57.03;100432.41;4863248;29;20053;-61
2023/07/02 06:43:27;;;;;;;4.78;3.50;;;;;;;25.97;56.95;100436.94;4863353;29;20474;-60
2023/07/02 06:45:54;;;;;;;4.80;2.85;;;;;;;25.98;57.16;100433.22;4863339;29;20045;-59
2023/07/02 06:48:21;;;;;;;4.50;3.47;;;;;;;25.99;57.27;100443.03;4862797;29;20057;-59
2023/07/02 06:50:49;;;;;;;4.93;3.60;;;;;;;25.99;57.18;100435.75;4863036;29;20490;-59
2023/07/02 06:53:16;;;;;;;4.50;3.85;;;;;;;26.00;57.52;100442.84;4863089;29;20427;-58
2023/07/02 06:55:46;;;;;;;5.43;3.80;;;;;;;26.01;57.55;100440.97;4862860;29;20053;-60
2023/07/02 06:58:14;;;;;;;5.53;3.83;;;;;;;26.01;57.59;100439.13;4862987;29;20049;-61
2023/07/02 07:00:41;;;;;;;5.20;3.05;;;;;;;26.03;57.37;100438.94;4862844;29;20049;-61
2023/07/02 07:03:08;;;;;;;5.47;3.42;;;;;;;26.03;57.23;100439.78;4862878;29;20049;-61
2023/07/02 07:05:36;;;;;;;5.30;3.40;;;;;;;26.05;57.30;100439.56;4862356;29;20054;-60
2023/07/02 07:08:03;;;;;;;7.28;6.28;;;;;;;26.02;57.61;100448.94;4862683;29;20076;-61
2023/07/02 07:10:34;;;;;;;5.32;4.22;;;;;;;26.00;57.64;100452.84;4862559;29;20057;-60
2023/07/02 07:13:02;;;;;;;5.68;4.60;;;;;;;26.00;57.74;100448.28;4862733;29;20053;-61
2023/07/02 07:15:34;;;;;;;7.30;4.80;;;;;;;26.00;57.82;100442.00;4862587;29;20054;-61
2023/07/02 07:18:02;;;;;;;5.50;3.83;;;;;;;25.99;57.91;100453.91;4862749;29;20045;-60
2023/07/02 07:20:31;;;;;;;5.72;4.65;;;;;;;26.00;58.32;100447.44;4862237;29;20053;-61
2023/07/02 07:22:58;;;;;;;5.70;4.57;;;;;;;26.00;58.36;100448.28;4862598;29;20068;-60
2023/07/02 07:25:26;;;;;;;5.65;4.32;;;;;;;26.01;58.26;100452.69;4862325;29;20058;-60
2023/07/02 07:27:53;;;;;;;5.00;4.28;;;;;;;26.03;58.34;100447.91;4862283;29;20111;-60
2023/07/02 07:30:24;;;;;;;6.40;4.55;;;;;;;26.05;58.24;100447.72;4862151;29;20053;-61
2023/07/02 07:32:53;;;;;;;7.43;5.78;;;;;;;26.04;58.28;100436.03;4862348;29;20061;-62
2023/07/02 07:35:21;;;;;;;6.57;5.65;;;;;;;26.06;58.26;100446.72;4858556;29;20053;-62
2023/07/02 07:37:49;;;;;;;5.85;5.20;;;;;;;26.10;58.38;100448.03;4843726;29;20050;-58
2023/07/02 07:40:17;;;;;;;6.38;5.03;;;;;;;26.13;58.33;100450.38;4843614;29;20061;-58
2023/07/02 07:42:44;;;;;;;7.28;5.10;;;;;;;26.16;58.33;100447.25;4843626;29;20061;-59
2023/07/02 07:45:12;;;;;;;5.90;4.78;;;;;;;26.17;58.21;100445.38;4843656;29;20050;-58
2023/07/02 07:47:39;;;;;;;9.15;7.07;;;;;;;26.14;58.35;100444.75;4843651;29;20063;-63
2023/07/02 07:50:10;;;;;;;8.13;7.32;;;;;;;26.05;59.00;100455.84;4843491;29;20503;-62
2023/07/02 07:52:39;;;;;;;7.90;6.05;;;;;;;26.08;58.69;100447.34;4843492;29;20057;-62
2023/07/02 07:55:07;;;;;;;5.43;4.80;;;;;;;26.10;58.39;100450.72;4843465;29;20064;-62
2023/07/02 07:57:36;;;;;;;5.35;4.45;;;;;;;26.13;58.35;100456.63;4843491;29;20418;-62
2023/07/02 08:00:12;;;;;;;5.50;4.70;;;;;;;26.18;58.34;100449.81;4843447;29;20050;-62
2023/07/02 08:02:43;;;;;;;5.97;5.38;;;;;;;26.22;58.12;100460.09;4849724;29;20058;-63
2023/07/02 08:05:11;;;;;;;6.80;4.90;;;;;;;26.28;58.28;100463.94;4843266;29;20537;-60
2023/07/02 08:07:40;;;;;;;6.18;4.65;;;;;;;26.31;58.29;100458.13;4843096;29;20058;-60
2023/07/02 08:10:08;;;;;;;6.55;5.07;;;;;;;26.34;58.01;100460.47;4842814;29;20054;-61
2023/07/02 08:12:35;;;;;;;6.10;4.43;;;;;;;26.35;57.99;100467.59;4843043;29;20050;-60
2023/07/02 08:15:03;;;;;;;5.28;4.50;;;;;;;26.34;57.93;100460.47;4842971;29;20054;-60
2023/07/02 08:17:31;;;;;;;4.88;4.25;;;;;;;26.33;57.89;100456.94;4843238;29;20506;-49
2023/07/02 08:19:58;;;;;;;5.00;4.28;;;;;;;26.34;57.77;100455.88;4843177;29;20045;-52
2023/07/02 08:22:26;;;;;;;5.90;4.47;;;;;;;26.35;57.68;100462.16;4843264;29;20050;-50
2023/07/02 08:24:54;;;;;;;6.07;4.10;;;;;;;26.35;57.62;100462.16;4843114;29;20070;-51
2023/07/02 08:27:23;;;;;;;5.97;4.53;;;;;;;26.35;57.51;100459.44;4842980;29;20403;-60
2023/07/02 08:29:50;;;;;;;5.35;4.85;;;;;;;26.34;57.64;100468.63;4843022;29;20064;-60
2023/07/02 08:32:17;;;;;;;5.68;4.28;;;;;;;26.35;57.55;100470.31;4842186;29;20060;-61
2023/07/02 08:34:45;;;;;;;5.40;4.60;;;;;;;26.34;57.75;100465.91;4842763;29;20054;-61
2023/07/02 08:37:12;;;;;;;5.65;4.55;;;;;;;26.34;57.74;100466.75;4848483;29;20053;-60
2023/07/02 08:39:40;;;;;;;5.90;4.65;;;;;;;26.35;57.76;100464.88;4847263;29;20056;-60
2023/07/02 08:42:08;;;;;;;5.43;4.10;;;;;;;26.35;57.82;100467.59;4843845;29;20403;-60
2023/07/02 08:44:35;;;;;;;6.18;4.00;;;;;;;26.36;57.72;100469.25;4859768;29;20053;-60
2023/07/02 08:47:03;;;;;;;5.60;4.20;;;;;;;26.36;57.72;100461.97;4859962;29;20048;-62
2023/07/02 08:49:31;;;;;;;4.72;4.00;;;;;;;26.37;57.68;100460.09;4857022;29;20077;-61
2023/07/02 08:51:59;;;;;;;4.93;3.95;;;;;;;26.39;57.58;100468.91;4852028;29;20045;-62
2023/07/02 08:54:26;;;;;;;5.88;4.30;;;;;;;26.39;57.47;100467.03;4858365;29;20065;-62
2023/07/02 08:56:54;;;;;;;4.60;4.07;;;;;;;26.40;57.59;100465.16;4857348;29;20376;-51
2023/07/02 08:59:21;;;;;;;5.68;4.18;;;;;;;26.42;57.73;100471.25;4859966;29;20041;-51
2023/07/02 09:01:51;;;;;;;5.72;3.80;;;;;;;26.42;57.89;100471.25;4859169;29;20053;-51
2023/07/02 09:04:20;;;;;;;5.45;3.92;;;;;;;26.42;58.30;100468.53;4859113;29;20046;-52
2023/07/02 09:06:49;;;;;;;5.43;4.38;;;;;;;26.44;58.25;100471.03;4860421;29;20421;-60
2023/07/02 09:09:17;;;;;;;5.95;4.15;;;;;;;26.44;58.30;100469.16;4860755;29;20049;-61
2023/07/02 09:11:51;;;;;;;4.20;3.67;;;;;;;26.44;58.08;100466.44;4860695;29;20076;-61
2023/07/02 09:14:26;;;;;;;5.22;3.63;;;;;;;26.46;58.27;100469.88;4860506;29;20053;-60
2023/07/02 09:17:08;;;;;;;5.45;3.70;;;;;;;26.45;58.00;100465.44;4860852;29;20069;-50
2023/07/02 09:19:49;;;;;;;4.85;4.25;;;;;;;26.45;57.85;100462.72;4846333;29;20046;-52
2023/07/02 09:22:16;;;;;;;5.25;4.32;;;;;;;26.46;57.90;100469.03;4842570;29;20080;-50
2023/07/02 09:24:53;;;;;;;4.35;3.95;;;;;;;26.47;58.11;100457.97;4842193;29;20068;-50
2023/07/02 09:27:21;;;;;;;4.97;3.97;;;;;;;26.47;58.17;100457.97;4842224;29;20061;-60
2023/07/02 09:29:54;;;;;;;6.68;4.32;;;;;;;26.47;58.20;100457.97;4842777;29;20065;-61
2023/07/02 09:32:26;;;;;;;4.75;3.90;;;;;;;26.48;58.09;100462.38;4855231;29;20049;-61
2023/07/02 09:34:55;;;;;;;4.47;3.58;;;;;;;26.49;58.08;100457.78;4859975;29;20529;-60
2023/07/02 09:37:23;;;;;;;5.03;4.20;;;;;;;26.49;57.88;100452.34;4861009;29;20060;-61
2023/07/02 09:39:54;;;;;;;5.47;3.83;;;;;;;26.50;58.20;100457.59;4860097;29;20062;-61
2023/07/02 09:42:24;;;;;;;4.57;4.05;;;;;;;26.51;57.99;100451.13;4860632;29;20053;-62
2023/07/02 09:44:52;;;;;;;4.32;3.78;;;;;;;26.51;57.93;100456.56;4863021;29;20076;-61
2023/07/02 09:47:23;;;;;;;5.13;3.85;;;;;;;26.52;58.04;100460.13;4863712;29;20403;-52
2023/07/02 09:50:11;;;;;;;5.18;4.18;;;;;;;26.52;57.85;100463.69;4862486;29;20120;-51
2023/07/02 09:52:39;;;;;;;5.40;3.95;;;;;;;26.53;58.10;100461.78;4863299;29;20056;-54
2023/07/02 09:55:07;;;;;;;5.25;3.80;;;;;;;26.54;57.88;100458.91;4864028;29;20050;-52
2023/07/02 09:57:34;;;;;;;4.93;3.50;;;;;;;26.54;58.10;100452.66;4863454;29;20053;-62
2023/07/02 10:00:07;;;;;;;5.13;3.50;;;;;;;26.57;58.06;100463.09;4863787;29;20065;-60
2023/07/02 10:02:35;;;;;;;4.10;3.70;;;;;;;26.55;58.40;100452.44;4864157;29;20049;-62
2023/07/02 10:05:04;;;;;;;4.88;4.00;;;;;;;26.56;58.38;100451.41;4863446;29;20053;-60
2023/07/02 10:07:33;;;;;;;5.47;4.13;;;;;;;26.57;58.13;100450.38;4863413;29;20068;-61
2023/07/02 10:10:01;;;;;;;6.88;3.50;;;;;;;26.57;58.27;100450.38;4863838;29;20057;-61
2023/07/02 10:12:30;;;;;;;6.97;3.95;;;;;;;26.58;58.36;100452.06;4863311;29;20060;-61
2023/07/02 10:14:59;;;;;;;5.35;4.68;;;;;;;26.60;58.11;100450.00;4863209;29;20690;-60
2023/07/02 10:17:34;;;;;;;5.13;4.25;;;;;;;26.59;58.29;100453.75;4863669;29;20056;-50
2023/07/02 10:20:08;;;;;;;4.50;3.72;;;;;;;26.59;58.21;100456.47;4852801;29;20046;-51
2023/07/02 10:22:43;;;;;;;5.63;3.75;;;;;;;26.61;58.06;100458.97;4853669;29;20056;-51
2023/07/02 10:25:11;;;;;;;5.78;4.05;;;;;;;26.61;58.04;100458.97;4863063;29;20442;-52
2023/07/02 10:27:40;;;;;;;5.63;4.05;;;;;;;26.60;58.02;100452.72;4862792;29;20375;-54
2023/07/02 10:30:09;;;;;;;5.20;4.10;;;;;;;26.60;57.73;100452.72;4862825;29;20050;-50
2023/07/02 10:32:38;;;;;;;5.30;4.13;;;;;;;26.60;57.70;100455.44;4862989;29;20049;-50
2023/07/02 10:35:18;;;;;;;4.72;3.72;;;;;;;26.61;57.86;100453.56;4862751;29;20490;-49
2023/07/02 10:37:46;;;;;;;4.45;3.70;;;;;;;26.61;57.78;100450.84;4851742;29;20054;-50
2023/07/02 10:40:13;;;;;;;5.60;3.83;;;;;;;26.62;57.84;100447.13;4844154;29;20050;-53
2023/07/02 10:42:52;;;;;;;4.38;3.72;;;;;;;26.64;58.68;100450.47;4844155;29;20407;-51
2023/07/02 10:45:20;;;;;;;6.25;4.55;;;;;;;26.65;59.35;100445.88;4844316;29;20050;-51
2023/07/02 10:47:48;;;;;;;6.05;4.45;;;;;;;26.65;59.68;100449.44;4858253;29;20062;-61
2023/07/02 10:50:19;;;;;;;6.43;4.75;;;;;;;26.66;59.96;100447.56;4860445;29;20064;-60
2023/07/02 10:52:50;;;;;;;5.88;4.38;;;;;;;26.66;60.05;100443.00;4861380;29;20062;-60
2023/07/02 10:55:22;;;;;;;5.38;4.55;;;;;;;26.68;60.06;100445.50;4861822;29;20076;-62
2023/07/02 10:57:51;;;;;;;7.20;4.60;;;;;;;26.68;60.13;100450.94;4862681;29;20061;-59
2023/07/02 11:00:19;;;;;;;6.97;5.03;;;;;;;26.69;60.15;100441.75;4862753;29;20050;-60
2023/07/02 11:02:47;;;;;;;5.80;5.03;;;;;;;26.70;59.82;100446.13;4862261;29;20516;-61
2023/07/02 11:05:14;;;;;;;5.63;4.72;;;;;;;26.70;59.61;100443.41;4862528;29;20053;-59
2023/07/02 11:07:42;;;;;;;5.85;4.82;;;;;;;26.70;60.85;100444.28;4862202;29;20061;-59
2023/07/02 11:10:16;;;;;;;5.45;4.85;;;;;;;26.69;61.80;100444.47;4862063;29;20049;-59
2023/07/02 11:12:44;;;;;;;7.53;5.18;;;;;;;26.68;62.34;100440.91;4862201;29;20124;-59
2023/07/02 11:15:13;;;;;;;6.18;5.30;;;;;;;26.67;62.37;100441.09;4862505;29;20557;-59
2023/07/02 11:17:41;;;;;;;4.82;4.28;;;;;;;26.66;62.71;100445.69;4862162;29;20065;-59
2023/07/02 11:20:11;;;;;;;4.78;4.28;;;;;;;26.65;62.94;100437.72;4862189;29;20390;-60
2023/07/02 11:22:40;;;;;;;6.53;5.93;;;;;;;26.65;62.99;100435.84;4862419;29;20049;-59
2023/07/02 11:25:19;;;;;;;6.55;5.50;;;;;;;26.65;63.35;100440.44;4861743;29;20057;-59
2023/07/02 11:27:47;;;;;;;6.13;5.25;;;;;;;26.61;63.44;100438.09;4861992;29;20057;-50
2023/07/02 11:30:14;;;;;;;6.72;5.18;;;;;;;26.61;63.77;100440.81;4862255;29;20052;-52